Time;durP1;ratioP1;P1;durP2;ratioP2;P2;SDS_P1;SDS_P2;PMS_P1;PMS_P2;Temp;Humidity;BMP_temperature;BMP_pressure;BME280_temperature;BME280_humidity;BME280_pressure;Samples;Min_cycle;Max_cycle;Signal;HPM_P1;HPM_P2
2022/06/03 00:01:46;;;;;;;0.80;0.80;;;15.70;93.80;;;;;;5063698;28;20585;-41
2022/06/03 00:04:34;;;;;;;0.90;0.90;;;15.70;94.20;;;;;;5096374;28;20309;-43
2022/06/03 00:07:23;;;;;;;1.63;1.03;;;15.70;94.00;;;;;;5095188;28;20197;-44
2022/06/03 00:10:23;;;;;;;1.57;0.87;;;15.70;94.00;;;;;;5102806;28;20622;-46
2022/06/03 00:12:58;;;;;;;0.70;0.70;;;15.70;94.10;;;;;;5095762;28;20545;-46
2022/06/03 00:15:42;;;;;;;0.80;0.80;;;15.60;94.10;;;;;;5097293;28;20679;-42
2022/06/03 00:18:31;;;;;;;0.90;0.90;;;15.60;94.30;;;;;;5096579;28;20228;-41
2022/06/03 00:21:03;;;;;;;0.77;0.77;;;15.70;94.40;;;;;;5109097;28;20567;-42
2022/06/03 00:23:55;;;;;;;1.23;0.93;;;15.70;94.50;;;;;;5108699;28;20204;-45
2022/06/03 00:26:40;;;;;;;0.83;0.83;;;15.70;94.60;;;;;;5089910;28;20201;-48
2022/06/03 00:29:32;;;;;;;2.07;0.90;;;15.60;94.60;;;;;;5087807;28;20306;-53
2022/06/03 00:32:24;;;;;;;1.00;0.97;;;15.60;94.70;;;;;;5104596;28;20200;-46
2022/06/03 00:35:15;;;;;;;0.83;0.83;;;15.60;94.80;;;;;;5096895;28;20220;-48
2022/06/03 00:37:50;;;;;;;1.00;1.00;;;15.60;94.90;;;;;;5091109;28;20196;-51
2022/06/03 00:40:36;;;;;;;0.90;0.90;;;15.60;95.30;;;;;;5102492;28;20298;-51
2022/06/03 00:43:37;;;;;;;1.00;0.90;;;15.60;95.00;;;;;;5108442;27;20661;-50
2022/06/03 00:46:20;;;;;;;1.10;1.00;;;15.60;95.10;;;;;;5079776;28;20311;-50
2022/06/03 00:49:05;;;;;;;0.97;0.97;;;15.60;95.10;;;;;;5089028;28;20265;-48
2022/06/03 00:52:15;;;;;;;0.80;0.80;;;15.60;95.50;;;;;;5095457;28;20271;-50
2022/06/03 00:55:02;;;;;;;0.90;0.90;;;15.60;95.30;;;;;;5093928;28;20245;-48
2022/06/03 00:58:13;;;;;;;1.00;1.00;;;15.60;95.30;;;;;;5103950;28;20245;-49
2022/06/03 01:00:54;;;;;;;1.00;1.00;;;15.60;95.40;;;;;;5098696;28;20207;-49
2022/06/03 01:03:40;;;;;;;1.00;0.90;;;15.60;95.40;;;;;;5098573;28;20267;-46
2022/06/03 01:06:22;;;;;;;1.00;1.00;;;15.60;95.50;;;;;;5093626;28;20216;-52
2022/06/03 01:09:03;;;;;;;0.97;0.97;;;15.60;95.60;;;;;;5100154;28;20264;-52
2022/06/03 01:12:00;;;;;;;1.00;1.00;;;15.60;95.70;;;;;;5101286;28;20207;-50
2022/06/03 01:14:38;;;;;;;0.80;0.80;;;15.60;95.80;;;;;;5093865;28;20280;-51
2022/06/03 01:17:12;;;;;;;0.90;0.90;;;15.60;95.80;;;;;;5100766;28;20271;-49
2022/06/03 01:20:03;;;;;;;0.80;0.80;;;15.60;95.90;;;;;;5108259;28;20365;-46
2022/06/03 01:23:06;;;;;;;0.80;0.80;;;15.60;96.00;;;;;;5109386;28;20287;-50
2022/06/03 01:26:01;;;;;;;0.90;0.90;;;15.60;96.00;;;;;;5107003;28;20792;-44
2022/06/03 01:29:01;;;;;;;0.70;0.70;;;15.60;96.10;;;;;;5106013;28;20235;-45
2022/06/03 01:32:02;;;;;;;0.90;0.90;;;15.60;96.10;;;;;;5109605;28;20269;-46
2022/06/03 01:34:42;;;;;;;0.70;0.70;;;15.70;96.20;;;;;;5060834;28;20248;-46
2022/06/03 01:37:17;;;;;;;0.93;0.93;;;15.60;96.20;;;;;;5109249;28;20270;-47
2022/06/03 01:40:06;;;;;;;0.70;0.70;;;15.70;96.30;;;;;;5110717;28;20556;-47
2022/06/03 01:43:10;;;;;;;0.80;0.80;;;15.70;96.30;;;;;;5102921;28;20201;-45
2022/06/03 01:46:03;;;;;;;0.73;0.73;;;15.70;96.40;;;;;;5098058;28;20299;-46
2022/06/03 01:48:53;;;;;;;0.90;0.90;;;15.70;96.40;;;;;;5112300;28;20268;-46
2022/06/03 01:52:12;;;;;;;0.90;0.90;;;15.70;96.50;;;;;;5102692;28;20270;-46
2022/06/03 01:55:27;;;;;;;2.10;1.13;;;15.60;96.50;;;;;;5026891;28;20206;-45
2022/06/03 01:58:42;;;;;;;1.00;1.00;;;15.70;96.50;;;;;;5039536;28;20198;-46
2022/06/03 02:01:44;;;;;;;1.10;1.10;;;15.60;96.60;;;;;;5067348;28;20209;-46
2022/06/03 02:04:29;;;;;;;1.53;1.20;;;15.60;96.70;;;;;;5091153;28;20258;-43
2022/06/03 02:07:27;;;;;;;1.13;1.07;;;15.60;96.80;;;;;;5103502;28;21056;-45
2022/06/03 02:10:35;;;;;;;4.93;1.00;;;15.60;96.90;;;;;;5089037;28;20204;-42
2022/06/03 02:13:29;;;;;;;0.90;0.90;;;15.60;96.90;;;;;;5092779;28;20668;-44
2022/06/03 02:16:30;;;;;;;0.97;0.97;;;15.60;97.00;;;;;;5105195;28;20275;-43
2022/06/03 02:19:28;;;;;;;1.10;1.10;;;15.50;97.00;;;;;;5097283;28;20619;-45
2022/06/03 02:22:17;;;;;;;0.80;0.80;;;15.50;97.10;;;;;;5101570;28;20690;-45
2022/06/03 02:25:10;;;;;;;1.40;1.30;;;15.50;97.20;;;;;;5090535;28;20287;-45
2022/06/03 02:28:00;;;;;;;1.07;1.07;;;15.50;97.30;;;;;;5108409;28;20307;-46
2022/06/03 02:31:01;;;;;;;0.87;0.87;;;15.50;97.30;;;;;;5097441;28;20283;-45
2022/06/03 02:33:58;;;;;;;0.80;0.80;;;15.50;97.40;;;;;;5111586;28;20260;-47
2022/06/03 02:37:05;;;;;;;1.30;1.20;;;15.50;97.50;;;;;;5091186;28;20253;-46
2022/06/03 02:40:06;;;;;;;0.90;0.90;;;15.50;97.60;;;;;;5088581;28;20194;-42
2022/06/03 02:43:01;;;;;;;1.20;1.10;;;15.50;97.60;;;;;;5099055;28;20282;-46
2022/06/03 02:45:55;;;;;;;0.80;0.80;;;15.50;97.70;;;;;;5090127;28;20246;-50
2022/06/03 02:48:58;;;;;;;1.00;1.00;;;15.50;97.80;;;;;;5104122;28;20365;-46
2022/06/03 02:51:43;;;;;;;0.80;0.80;;;15.40;97.90;;;;;;5072864;28;20214;-46
2022/06/03 02:54:57;;;;;;;0.90;0.90;;;15.40;98.10;;;;;;5104112;28;20627;-47
2022/06/03 02:57:52;;;;;;;1.03;1.03;;;15.40;98.10;;;;;;5097250;28;20195;-46
2022/06/03 03:00:24;;;;;;;0.83;0.83;;;15.50;98.20;;;;;;5109776;28;20216;-46
2022/06/03 03:03:14;;;;;;;0.93;0.93;;;15.50;98.30;;;;;;5102296;28;20208;-48
2022/06/03 03:06:16;;;;;;;1.00;0.90;;;15.50;98.30;;;;;;5067459;28;20262;-48
2022/06/03 03:09:30;;;;;;;0.80;0.80;;;15.50;98.40;;;;;;5109243;28;20225;-44
2022/06/03 03:12:27;;;;;;;0.80;0.80;;;15.50;98.50;;;;;;5091444;28;20223;-48
2022/06/03 03:15:27;;;;;;;0.90;0.90;;;15.50;98.50;;;;;;5096160;28;20714;-44
2022/06/03 03:18:30;;;;;;;0.80;0.80;;;15.60;98.60;;;;;;5067164;28;20196;-46
2022/06/03 03:21:32;;;;;;;0.70;0.70;;;15.60;98.60;;;;;;5110184;28;20242;-49
2022/06/03 03:24:28;;;;;;;0.83;0.83;;;15.60;98.60;;;;;;5093747;28;20943;-48
2022/06/03 03:27:03;;;;;;;0.90;0.70;;;15.60;98.70;;;;;;5106716;28;20287;-43
2022/06/03 03:29:53;;;;;;;0.80;0.80;;;15.60;98.80;;;;;;5098291;28;20207;-51
2022/06/03 03:32:42;;;;;;;0.80;0.80;;;15.60;98.80;;;;;;5110441;28;20206;-49
2022/06/03 03:35:22;;;;;;;0.90;0.90;;;15.60;98.90;;;;;;5104375;28;20220;-51
2022/06/03 03:38:35;;;;;;;0.90;0.90;;;15.60;98.90;;;;;;5105721;28;20675;-46
2022/06/03 03:41:37;;;;;;;0.63;0.63;;;15.60;99.00;;;;;;5092440;28;20282;-44
2022/06/03 03:44:26;;;;;;;0.83;0.83;;;15.60;99.00;;;;;;5099242;28;20219;-48
2022/06/03 03:47:30;;;;;;;0.80;0.80;;;15.60;99.10;;;;;;5087833;28;20776;-48
2022/06/03 03:50:43;;;;;;;0.97;0.97;;;15.60;99.10;;;;;;5089543;28;20208;-48
2022/06/03 03:53:37;;;;;;;0.90;0.90;;;15.60;99.20;;;;;;5069679;28;20212;-46
2022/06/03 03:56:33;;;;;;;1.00;1.00;;;15.60;99.30;;;;;;5106955;28;20184;-45
2022/06/03 03:59:40;;;;;;;1.30;1.20;;;15.60;99.40;;;;;;5102782;28;20283;-42
2022/06/03 04:02:38;;;;;;;1.07;1.07;;;15.60;99.50;;;;;;5093911;28;20610;-45
2022/06/03 04:05:33;;;;;;;0.80;0.80;;;15.60;99.60;;;;;;5093964;28;20204;-42
2022/06/03 04:08:36;;;;;;;1.00;1.00;;;15.60;99.60;;;;;;5103017;28;20275;-42
2022/06/03 04:11:34;;;;;;;0.97;0.97;;;15.60;99.70;;;;;;5101763;28;20211;-42
2022/06/03 04:14:45;;;;;;;0.80;0.80;;;15.50;99.80;;;;;;5101094;28;20227;-43
2022/06/03 04:17:58;;;;;;;1.10;1.10;;;15.50;99.90;;;;;;5102500;28;20206;-48
2022/06/03 04:21:10;;;;;;;1.53;1.10;;;15.50;99.90;;;;;;5105391;28;20201;-53
2022/06/03 04:24:19;;;;;;;1.17;1.17;;;15.50;99.90;;;;;;5082673;28;20287;-48
2022/06/03 04:27:17;;;;;;;1.40;1.30;;;15.40;99.90;;;;;;5095856;28;20365;-50
2022/06/03 04:30:17;;;;;;;1.00;1.00;;;15.50;99.90;;;;;;5102382;28;20209;-50
2022/06/03 04:33:24;;;;;;;0.90;0.90;;;15.50;99.90;;;;;;5099567;28;20249;-49
2022/06/03 04:36:26;;;;;;;1.10;1.10;;;15.50;99.90;;;;;;5099557;28;20241;-45
2022/06/03 04:39:29;;;;;;;0.73;0.73;;;15.60;99.90;;;;;;5092983;28;20584;-51
2022/06/03 04:42:43;;;;;;;1.10;1.10;;;15.60;99.90;;;;;;5094454;28;20243;-51
2022/06/03 04:45:37;;;;;;;2.53;0.93;;;15.60;99.90;;;;;;5107585;28;20238;-49
2022/06/03 04:48:51;;;;;;;2.70;1.20;;;15.50;99.90;;;;;;5109408;28;20352;-42
2022/06/03 04:52:03;;;;;;;0.90;0.90;;;15.50;99.90;;;;;;5105055;28;20215;-42
2022/06/03 04:55:16;;;;;;;1.17;1.10;;;15.50;99.90;;;;;;5096066;28;20714;-43
2022/06/03 04:58:18;;;;;;;1.20;1.10;;;15.60;99.90;;;;;;5103397;28;20218;-43
2022/06/03 05:01:18;;;;;;;0.90;0.90;;;15.60;99.90;;;;;;5096384;28;20222;-42
2022/06/03 05:04:31;;;;;;;1.43;1.13;;;15.60;99.90;;;;;;5051848;28;20212;-42
2022/06/03 05:08:00;;;;;;;1.00;1.00;;;15.60;99.90;;;;;;5095797;28;20191;-46
2022/06/03 05:11:03;;;;;;;2.50;1.30;;;15.70;99.90;;;;;;5103002;28;20600;-43
2022/06/03 05:14:11;;;;;;;1.20;1.10;;;15.70;99.90;;;;;;5105926;28;20273;-46
2022/06/03 05:17:06;;;;;;;1.23;1.20;;;15.70;99.90;;;;;;5113190;28;20219;-41
2022/06/03 05:20:10;;;;;;;1.63;1.53;;;15.70;99.90;;;;;;5110461;28;20230;-42
2022/06/03 05:23:13;;;;;;;1.77;1.67;;;15.70;99.90;;;;;;5094023;28;20220;-42
2022/06/03 05:26:13;;;;;;;1.80;1.70;;;15.80;99.90;;;;;;5086968;28;20409;-43
2022/06/03 05:29:17;;;;;;;2.03;1.80;;;15.80;99.90;;;;;;5065797;28;20215;-42
2022/06/03 05:32:19;;;;;;;1.57;1.53;;;15.80;99.90;;;;;;5093241;28;20275;-44
2022/06/03 05:35:16;;;;;;;1.50;1.40;;;15.90;99.90;;;;;;5104115;28;20226;-43
2022/06/03 05:38:02;;;;;;;1.80;1.70;;;15.80;99.90;;;;;;5105075;28;20196;-44
2022/06/03 05:40:48;;;;;;;1.70;1.60;;;15.80;99.90;;;;;;5108881;28;20271;-42
2022/06/03 05:43:54;;;;;;;4.10;1.83;;;15.80;99.90;;;;;;5107570;28;20187;-47
2022/06/03 05:46:34;;;;;;;1.60;1.50;;;15.80;99.90;;;;;;5111990;28;20382;-43
2022/06/03 05:49:19;;;;;;;1.40;1.30;;;15.90;99.90;;;;;;5109867;28;20203;-46
2022/06/03 05:52:03;;;;;;;2.77;1.77;;;15.90;99.90;;;;;;5106787;28;20278;-45
2022/06/03 05:54:41;;;;;;;2.17;1.70;;;16.00;99.90;;;;;;5097403;28;20194;-45
2022/06/03 05:57:25;;;;;;;1.83;1.73;;;16.10;99.90;;;;;;5110553;28;20214;-45
2022/06/03 06:00:26;;;;;;;2.33;1.57;;;16.10;99.90;;;;;;5103054;28;20282;-45
2022/06/03 06:03:11;;;;;;;1.80;1.70;;;16.20;99.90;;;;;;5092655;28;20277;-44
2022/06/03 06:05:42;;;;;;;2.67;2.03;;;16.20;99.90;;;;;;5095193;28;20212;-48
2022/06/03 06:08:22;;;;;;;3.47;2.07;;;16.30;99.90;;;;;;5098230;28;20579;-44
2022/06/03 06:10:57;;;;;;;1.57;1.37;;;16.40;99.90;;;;;;5092704;28;20198;-44
2022/06/03 06:13:50;;;;;;;2.00;1.90;;;16.40;99.90;;;;;;5106238;28;20274;-48
2022/06/03 06:16:21;;;;;;;2.13;1.80;;;16.40;99.90;;;;;;5101435;28;20223;-43
2022/06/03 06:18:59;;;;;;;1.60;1.50;;;16.50;99.90;;;;;;5109255;28;20192;-44
2022/06/03 06:21:53;;;;;;;1.33;1.30;;;16.50;99.90;;;;;;5100728;28;20314;-43
2022/06/03 06:24:42;;;;;;;1.60;1.50;;;16.60;99.90;;;;;;5107614;27;20609;-44
2022/06/03 06:27:46;;;;;;;2.13;1.30;;;16.70;99.90;;;;;;5104906;28;20580;-46
2022/06/03 06:30:26;;;;;;;1.50;1.40;;;16.70;99.90;;;;;;5092616;28;20200;-43
2022/06/03 06:33:26;;;;;;;1.17;1.17;;;16.70;99.90;;;;;;5090876;28;20293;-44
2022/06/03 06:36:39;;;;;;;2.87;1.80;;;16.80;99.90;;;;;;5094258;28;20249;-42
2022/06/03 06:39:20;;;;;;;2.90;1.70;;;16.80;99.90;;;;;;5025234;28;20207;-42
2022/06/03 06:41:55;;;;;;;1.53;1.27;;;16.80;99.90;;;;;;5026868;28;20287;-42
2022/06/03 06:44:35;;;;;;;1.30;1.17;;;16.80;99.90;;;;;;5062832;28;20239;-43
2022/06/03 06:47:13;;;;;;;1.97;1.30;;;16.90;99.90;;;;;;5089764;28;20706;-42
2022/06/03 06:49:49;;;;;;;1.27;1.17;;;16.90;99.90;;;;;;5104871;28;20200;-44
2022/06/03 06:52:49;;;;;;;4.50;1.30;;;17.00;99.80;;;;;;5104319;28;20210;-44
2022/06/03 06:55:22;;;;;;;3.23;1.60;;;17.00;99.60;;;;;;5093799;28;20269;-42
2022/06/03 06:57:54;;;;;;;1.53;1.43;;;17.10;98.90;;;;;;5098380;28;20192;-43
2022/06/03 07:00:24;;;;;;;1.70;1.60;;;17.20;98.70;;;;;;5087885;28;20772;-43
2022/06/03 07:02:54;;;;;;;1.60;1.30;;;17.20;98.60;;;;;;5097169;28;20208;-46
2022/06/03 07:05:28;;;;;;;1.60;1.50;;;17.20;98.20;;;;;;5104952;28;20212;-42
2022/06/03 07:08:04;;;;;;;1.87;1.30;;;17.20;98.00;;;;;;5097567;28;20195;-42
2022/06/03 07:10:38;;;;;;;3.63;1.50;;;17.30;98.00;;;;;;5095714;28;20191;-43
2022/06/03 07:13:11;;;;;;;1.63;1.53;;;17.30;97.70;;;;;;5109807;28;20283;-43
2022/06/03 07:15:57;;;;;;;4.90;1.53;;;17.30;97.50;;;;;;5105317;28;20204;-45
2022/06/03 07:21:30;;;;;;;3.53;1.50;;;17.40;97.30;;;;;;5098493;28;20198;-43
2022/06/03 07:24:03;;;;;;;3.72;1.67;;;17.40;97.10;;;;;;5106213;28;20227;-43
2022/06/03 07:26:36;;;;;;;1.87;1.47;;;17.40;96.60;;;;;;5109527;28;20508;-45
2022/06/03 07:29:12;;;;;;;3.30;1.67;;;17.50;96.30;;;;;;5095440;28;20261;-43
2022/06/03 07:31:43;;;;;;;1.60;1.50;;;17.50;96.40;;;;;;5107433;28;20194;-47
2022/06/03 07:34:17;;;;;;;1.53;1.10;;;17.60;96.20;;;;;;5090563;28;20666;-50
2022/06/03 07:36:48;;;;;;;1.60;1.35;;;17.60;95.90;;;;;;5089695;28;20195;-52
2022/06/03 07:39:44;;;;;;;1.50;1.40;;;17.70;95.70;;;;;;5097035;28;20208;-49
2022/06/03 07:42:18;;;;;;;1.77;1.40;;;17.80;95.70;;;;;;5102120;28;20189;-49
2022/06/03 07:44:55;;;;;;;1.73;1.17;;;17.80;95.60;;;;;;5105986;28;20190;-45
2022/06/03 07:47:24;;;;;;;4.60;2.55;;;17.90;95.40;;;;;;5090897;28;20222;-48
2022/06/03 07:49:56;;;;;;;3.43;2.47;;;18.00;94.40;;;;;;5102013;28;20285;-49
2022/06/03 07:52:33;;;;;;;2.17;1.45;;;18.00;94.40;;;;;;5087264;28;20627;-47
2022/06/03 07:55:07;;;;;;;1.77;1.67;;;18.00;94.50;;;;;;5103628;28;20196;-43
2022/06/03 07:57:34;;;;;;;2.03;1.50;;;18.10;94.30;;;;;;5092329;28;20199;-43
2022/06/03 08:00:07;;;;;;;1.50;1.40;;;18.20;93.70;;;;;;5088369;28;20207;-46
2022/06/03 08:02:34;;;;;;;2.00;1.23;;;18.20;93.70;;;;;;5090268;28;20636;-43
2022/06/03 08:05:10;;;;;;;1.60;1.50;;;18.30;93.80;;;;;;5107579;28;20208;-42
2022/06/03 08:13:12;;;;;;;2.08;1.55;;;18.40;93.10;;;;;;5100485;28;20222;-45
2022/06/03 08:15:45;;;;;;;1.52;1.35;;;18.30;93.10;;;;;;5089480;28;20602;-47
2022/06/03 08:18:18;;;;;;;1.13;1.00;;;18.30;93.20;;;;;;5096169;28;20198;-48
2022/06/03 08:20:51;;;;;;;2.35;1.70;;;18.30;93.20;;;;;;5108135;28;20227;-47
2022/06/03 08:23:20;;;;;;;1.08;1.08;;;18.30;92.90;;;;;;5107860;28;20219;-48
2022/06/03 08:25:50;;;;;;;1.83;1.40;;;18.30;92.90;;;;;;5085934;28;20763;-44
2022/06/03 08:28:21;;;;;;;1.58;1.40;;;18.30;92.80;;;;;;5087600;28;20584;-48
2022/06/03 08:30:53;;;;;;;2.55;1.35;;;18.40;92.70;;;;;;5088322;28;20199;-45
2022/06/03 08:33:28;;;;;;;1.17;1.13;;;18.40;92.30;;;;;;5101444;28;20294;-51
2022/06/03 08:35:55;;;;;;;1.00;1.00;;;18.60;92.40;;;;;;5100558;28;20309;-47
2022/06/03 08:38:27;;;;;;;1.00;1.00;;;18.60;92.50;;;;;;5102643;28;20245;-48
2022/06/03 08:41:03;;;;;;;1.30;1.20;;;18.70;92.40;;;;;;5088736;28;20202;-47
2022/06/03 08:43:39;;;;;;;1.80;1.00;;;18.80;92.10;;;;;;5098922;28;20624;-47
2022/06/03 08:46:14;;;;;;;2.55;1.20;;;18.90;92.10;;;;;;5086965;28;20648;-48
2022/06/03 08:48:44;;;;;;;1.58;1.20;;;19.00;92.10;;;;;;5101311;28;20231;-45
2022/06/03 08:51:15;;;;;;;1.95;1.05;;;19.00;92.00;;;;;;5100512;28;20198;-49
2022/06/03 08:53:48;;;;;;;1.55;1.30;;;19.10;92.10;;;;;;5102136;28;20219;-45
2022/06/03 08:56:19;;;;;;;1.67;1.50;;;19.20;91.90;;;;;;5096599;28;20184;-46
2022/06/03 08:58:54;;;;;;;2.17;1.50;;;19.30;91.70;;;;;;5098033;28;20280;-46
2022/06/03 09:01:39;;;;;;;1.50;1.40;;;19.30;91.40;;;;;;5096404;28;20187;-46
2022/06/03 09:04:15;;;;;;;4.53;1.48;;;19.40;90.60;;;;;;5103674;28;20203;-50
2022/06/03 09:06:48;;;;;;;1.15;1.10;;;19.40;90.00;;;;;;5088690;28;20970;-45
2022/06/03 09:09:26;;;;;;;1.20;1.10;;;19.50;89.80;;;;;;5097346;28;20192;-46
2022/06/03 09:12:00;;;;;;;1.02;0.93;;;19.50;89.30;;;;;;5101247;28;20313;-46
2022/06/03 09:14:29;;;;;;;2.25;1.33;;;19.50;89.30;;;;;;5107178;28;20257;-47
2022/06/03 09:17:04;;;;;;;1.00;1.00;;;19.50;88.30;;;;;;5093103;28;20216;-48
2022/06/03 09:19:35;;;;;;;1.58;1.48;;;19.50;89.10;;;;;;5100422;28;20465;-48
2022/06/03 09:22:10;;;;;;;1.10;1.10;;;19.50;88.60;;;;;;5104164;28;20205;-50
2022/06/03 09:24:40;;;;;;;2.30;1.27;;;19.50;88.30;;;;;;5085838;28;20559;-46
2022/06/03 09:27:10;;;;;;;1.20;1.13;;;19.50;87.90;;;;;;5092995;28;20206;-42
2022/06/03 09:29:38;;;;;;;1.27;1.00;;;19.60;88.00;;;;;;5099220;28;20552;-44
2022/06/03 09:32:09;;;;;;;1.48;1.05;;;19.70;87.90;;;;;;5100282;28;20192;-43
2022/06/03 09:34:42;;;;;;;1.20;1.20;;;19.80;87.40;;;;;;5107076;28;20259;-43
2022/06/03 09:37:12;;;;;;;1.33;1.10;;;19.90;87.20;;;;;;5088442;28;20223;-46
2022/06/03 09:39:40;;;;;;;1.02;1.02;;;19.90;86.80;;;;;;5099460;28;20276;-43
2022/06/03 09:42:09;;;;;;;1.65;1.10;;;19.90;86.60;;;;;;5093880;28;20204;-43
2022/06/03 09:44:38;;;;;;;1.27;1.20;;;19.90;86.30;;;;;;5098080;28;20258;-44
2022/06/03 09:47:09;;;;;;;1.00;1.00;;;20.00;85.80;;;;;;5098600;28;20350;-43
2022/06/03 09:49:37;;;;;;;1.20;0.90;;;20.10;85.50;;;;;;5087426;28;20290;-44
2022/06/03 09:52:08;;;;;;;1.08;0.98;;;20.20;85.20;;;;;;5089250;28;20192;-42
2022/06/03 09:54:39;;;;;;;2.03;1.20;;;19.90;84.70;;;;;;5105962;28;20203;-43
2022/06/03 09:57:10;;;;;;;1.70;1.60;;;20.20;84.90;;;;;;5098333;28;20822;-42
2022/06/03 09:59:39;;;;;;;1.75;1.65;;;20.30;84.50;;;;;;5100394;28;20278;-59
2022/06/03 10:02:09;;;;;;;2.17;1.73;;;20.40;84.00;;;;;;5104463;28;20245;-45
2022/06/03 10:04:36;;;;;;;2.38;1.48;;;20.40;83.40;;;;;;5101596;28;20192;-49
2022/06/03 10:07:04;;;;;;;1.23;1.23;;;20.40;83.80;;;;;;5105932;28;20203;-47
2022/06/03 10:12:52;;;;;;;1.00;1.00;;;20.40;83.70;;;;;;5077683;28;20205;-46
2022/06/03 10:15:42;;;;;;;1.75;0.90;;;20.50;83.60;;;;;;5107709;28;20227;-50
2022/06/03 10:18:30;;;;;;;1.27;1.20;;;20.70;83.10;;;;;;5105222;28;20192;-46
2022/06/03 10:20:59;;;;;;;2.03;1.17;;;20.70;82.00;;;;;;5091034;28;20253;-46
2022/06/03 10:23:31;;;;;;;0.77;0.77;;;20.70;81.70;;;;;;5093318;28;20192;-44
2022/06/03 10:26:01;;;;;;;1.15;1.00;;;20.80;81.90;;;;;;5109675;28;20303;-49
2022/06/03 10:28:34;;;;;;;3.60;1.00;;;20.80;82.00;;;;;;5095884;28;20208;-45
2022/06/03 10:31:06;;;;;;;0.90;0.90;;;20.90;80.90;;;;;;5096021;28;20208;-46
2022/06/03 10:33:35;;;;;;;2.35;1.20;;;21.00;80.60;;;;;;5108790;28;20196;-45
2022/06/03 10:36:04;;;;;;;1.13;1.02;;;21.10;79.90;;;;;;5097366;28;20344;-46
2022/06/03 10:38:34;;;;;;;1.13;1.00;;;21.20;78.50;;;;;;5096099;28;20257;-49
2022/06/03 10:41:06;;;;;;;1.30;1.20;;;21.30;78.10;;;;;;5099586;28;20709;-43
2022/06/03 10:43:36;;;;;;;1.00;1.00;;;21.30;76.60;;;;;;5104913;28;20524;-47
2022/06/03 10:46:11;;;;;;;1.67;1.58;;;21.40;76.80;;;;;;5099515;27;20679;-48
2022/06/03 10:48:40;;;;;;;1.30;1.20;;;21.40;75.10;;;;;;5101279;28;20207;-44
2022/06/03 10:51:17;;;;;;;1.40;1.30;;;21.50;74.70;;;;;;5091524;28;20224;-46
2022/06/03 11:02:30;;;;;;;1.35;1.30;;;21.60;74.00;;;;;;5101792;28;20193;-44
2022/06/03 11:05:11;;;;;;;1.45;1.08;;;21.70;72.90;;;;;;5094690;28;20651;-48
2022/06/03 11:07:38;;;;;;;1.05;1.05;;;21.80;73.10;;;;;;5096802;28;20748;-42
2022/06/03 11:10:08;;;;;;;1.35;1.30;;;21.80;73.10;;;;;;5104146;28;20200;-41
2022/06/03 11:12:35;;;;;;;1.20;1.10;;;21.70;72.60;;;;;;5103699;28;20207;-43
2022/06/03 11:15:02;;;;;;;1.50;1.40;;;21.60;72.40;;;;;;5096611;28;20222;-42
2022/06/03 11:17:37;;;;;;;0.93;0.93;;;21.50;71.50;;;;;;5106190;28;20667;-42
2022/06/03 11:20:30;;;;;;;1.05;1.05;;;21.50;72.00;;;;;;5105858;28;20219;-43
2022/06/03 11:22:57;;;;;;;1.17;1.08;;;21.60;72.40;;;;;;5098484;28;20716;-44
2022/06/03 11:25:28;;;;;;;1.00;1.00;;;21.70;72.30;;;;;;5091985;28;20200;-45
2022/06/03 11:27:59;;;;;;;1.48;1.38;;;21.80;71.80;;;;;;5090525;28;20291;-44
2022/06/03 11:30:35;;;;;;;1.35;1.27;;;21.90;71.30;;;;;;5099665;28;20878;-42
2022/06/03 11:33:05;;;;;;;1.42;1.33;;;22.00;71.20;;;;;;5095821;28;20199;-46
2022/06/03 11:35:39;;;;;;;1.20;1.10;;;22.10;70.60;;;;;;5093330;28;20654;-42
2022/06/03 11:38:09;;;;;;;1.10;1.10;;;22.10;70.50;;;;;;5094956;28;20193;-41
2022/06/03 11:40:41;;;;;;;1.70;1.20;;;22.10;70.30;;;;;;5089226;28;20200;-44
2022/06/03 11:43:14;;;;;;;1.23;1.20;;;22.00;69.70;;;;;;5106937;28;20205;-41
2022/06/03 11:45:47;;;;;;;1.55;1.10;;;22.00;69.70;;;;;;5107036;28;20289;-41
2022/06/03 11:48:20;;;;;;;1.17;1.15;;;22.10;68.90;;;;;;5091545;28;20254;-44
2022/06/03 11:50:48;;;;;;;2.15;0.93;;;22.10;68.70;;;;;;5102527;28;20241;-43
2022/06/03 11:53:20;;;;;;;1.27;1.27;;;22.10;68.60;;;;;;5103131;28;20259;-42
2022/06/03 11:55:47;;;;;;;1.20;1.10;;;22.20;69.20;;;;;;5097981;28;20287;-46
2022/06/03 11:58:20;;;;;;;1.70;1.30;;;22.10;70.00;;;;;;5095766;28;20237;-43
2022/06/03 12:00:52;;;;;;;1.88;1.50;;;22.00;72.10;;;;;;5103498;28;20312;-42
2022/06/03 12:03:38;;;;;;;2.90;1.48;;;21.80;74.60;;;;;;5098010;28;20340;-43
2022/06/03 12:06:12;;;;;;;2.33;1.70;;;21.70;75.70;;;;;;5097852;28;20187;-42
2022/06/03 12:08:58;;;;;;;1.80;1.70;;;21.70;77.80;;;;;;5097515;28;20216;-45
2022/06/03 12:14:31;;;;;;;2.22;1.58;;;21.50;80.20;;;;;;5103388;28;20357;-43
2022/06/03 12:17:01;;;;;;;1.33;1.23;;;21.30;80.60;;;;;;5100303;28;20256;-45
2022/06/03 12:19:38;;;;;;;1.52;1.30;;;21.20;80.90;;;;;;5102143;28;20200;-45
2022/06/03 12:22:36;;;;;;;2.55;1.60;;;21.00;81.40;;;;;;5104958;28;20212;-45
2022/06/03 12:25:05;;;;;;;1.35;1.20;;;20.90;82.10;;;;;;5093467;28;20203;-43
2022/06/03 12:27:35;;;;;;;1.52;1.42;;;20.80;82.50;;;;;;5092279;28;20383;-42
2022/06/03 12:30:17;;;;;;;1.63;1.52;;;20.70;83.10;;;;;;5089530;28;20672;-45
2022/06/03 12:32:53;;;;;;;1.40;1.27;;;20.60;83.70;;;;;;5103839;28;20200;-45
2022/06/03 12:35:50;;;;;;;1.45;1.35;;;20.60;84.00;;;;;;5094048;28;20301;-43
2022/06/03 12:38:48;;;;;;;1.20;1.10;;;20.60;84.10;;;;;;5091306;28;20215;-45
2022/06/03 12:41:44;;;;;;;1.65;1.23;;;20.60;84.20;;;;;;5054676;28;20211;-48
2022/06/03 12:44:34;;;;;;;1.92;1.45;;;20.50;84.40;;;;;;5101850;28;20279;-46
2022/06/03 12:47:43;;;;;;;1.58;1.48;;;20.30;84.70;;;;;;5088505;28;20680;-48
2022/06/03 12:50:31;;;;;;;3.15;1.83;;;20.20;85.00;;;;;;5095467;28;20207;-45
2022/06/03 12:53:18;;;;;;;1.55;1.45;;;20.20;85.50;;;;;;5099120;28;20192;-49
2022/06/03 12:55:52;;;;;;;1.40;1.30;;;20.20;86.00;;;;;;5100884;28;20613;-49
2022/06/03 12:58:44;;;;;;;2.40;1.25;;;20.20;86.20;;;;;;5095245;28;20218;-50
2022/06/03 13:01:28;;;;;;;2.03;1.30;;;20.20;86.20;;;;;;5095957;28;20199;-46
2022/06/03 13:03:55;;;;;;;1.50;1.35;;;20.20;86.40;;;;;;5099557;28;20974;-50
2022/06/03 13:06:28;;;;;;;3.25;1.60;;;20.20;86.60;;;;;;5105070;28;20196;-48
2022/06/03 13:11:44;;;;;;;1.55;1.45;;;20.20;86.70;;;;;;5091246;28;20259;-50
2022/06/03 13:14:29;;;;;;;3.50;1.50;;;20.10;86.70;;;;;;5102878;28;20278;-49
2022/06/03 13:16:57;;;;;;;3.92;1.58;;;20.00;87.80;;;;;;5098294;28;20217;-49
2022/06/03 13:19:46;;;;;;;5.60;1.80;;;20.10;87.40;;;;;;5101027;28;20275;-51
2022/06/03 13:22:29;;;;;;;1.65;1.40;;;20.10;87.60;;;;;;5104592;28;20253;-48
2022/06/03 13:25:25;;;;;;;2.72;1.38;;;20.20;87.60;;;;;;5086475;28;20200;-46
2022/06/03 13:28:22;;;;;;;2.60;1.50;;;20.20;87.60;;;;;;5092521;28;20274;-51
2022/06/03 13:31:13;;;;;;;1.58;1.48;;;20.20;87.80;;;;;;5098341;28;20216;-49
2022/06/03 13:34:02;;;;;;;1.30;1.20;;;20.20;87.80;;;;;;5107997;28;20628;-51
2022/06/03 13:36:32;;;;;;;1.45;1.30;;;20.20;87.70;;;;;;5060554;28;20197;-43
2022/06/03 13:38:59;;;;;;;1.45;1.20;;;20.30;87.70;;;;;;5063715;28;20670;-47
2022/06/03 13:44:40;;;;;;;1.30;1.20;;;20.30;87.60;;;;;;5070502;28;20197;-51
2022/06/03 13:47:10;;;;;;;9.63;1.45;;;20.30;87.30;;;;;;5062994;28;20304;-47
2022/06/03 13:49:39;;;;;;;1.58;1.48;;;20.30;87.20;;;;;;5065329;28;20203;-45
2022/06/03 13:52:09;;;;;;;1.38;1.20;;;20.30;87.20;;;;;;5058411;28;20190;-49
2022/06/03 13:54:44;;;;;;;4.97;1.65;;;20.30;87.90;;;;;;5058640;28;20201;-47
2022/06/03 13:57:29;;;;;;;1.60;1.48;;;20.20;87.10;;;;;;5069191;28;20181;-47
2022/06/03 14:00:18;;;;;;;1.27;1.08;;;20.20;86.90;;;;;;5066344;28;20284;-49
2022/06/03 14:02:48;;;;;;;1.80;1.20;;;20.20;86.90;;;;;;5065745;28;20305;-45
2022/06/03 14:05:30;;;;;;;2.15;1.40;;;20.20;86.90;;;;;;5068465;28;20197;-48
2022/06/03 14:08:01;;;;;;;2.05;1.30;;;20.20;86.80;;;;;;5069720;28;20743;-50
2022/06/03 14:10:42;;;;;;;2.05;1.42;;;20.20;86.70;;;;;;5064475;28;20625;-48
2022/06/03 14:13:21;;;;;;;3.13;1.50;;;20.00;87.20;;;;;;5059420;28;20201;-48
2022/06/03 14:15:54;;;;;;;1.50;1.30;;;20.00;86.40;;;;;;5056426;28;20190;-47
2022/06/03 14:18:47;;;;;;;1.95;1.40;;;19.90;86.30;;;;;;5063962;28;20653;-47
2022/06/03 14:21:19;;;;;;;2.92;1.40;;;19.90;86.20;;;;;;5068476;28;20286;-47
2022/06/03 14:23:47;;;;;;;2.67;1.30;;;19.90;86.00;;;;;;5057293;28;20202;-44
2022/06/03 14:26:20;;;;;;;1.65;1.45;;;19.90;86.00;;;;;;5056366;28;20209;-47
2022/06/03 14:28:54;;;;;;;3.08;1.50;;;19.90;86.20;;;;;;5056808;28;20206;-47
2022/06/03 14:31:32;;;;;;;2.92;1.63;;;19.90;86.10;;;;;;5056014;28;20201;-47
2022/06/03 14:34:09;;;;;;;1.42;1.33;;;19.90;86.80;;;;;;5060734;28;20221;-43
2022/06/03 14:36:37;;;;;;;1.60;1.50;;;19.90;85.90;;;;;;5098153;28;20283;-48
2022/06/03 14:39:10;;;;;;;11.43;1.50;;;19.90;85.80;;;;;;5096001;28;20291;-45
2022/06/03 14:41:41;;;;;;;1.38;1.27;;;19.90;85.80;;;;;;5102433;28;20228;-42
2022/06/03 14:44:12;;;;;;;1.20;1.10;;;19.90;85.90;;;;;;5098280;28;20291;-45